Time;durP1;ratioP1;P1;durP2;ratioP2;P2;SDS_P1;SDS_P2;PMS_P1;PMS_P2;Temp;Humidity;BMP_temperature;BMP_pressure;BME280_temperature;BME280_humidity;BME280_pressure;Samples;Min_cycle;Max_cycle;Signal;HPM_P1;HPM_P2
2024/03/02 00:00:20;;;;;;;2.58;1.10;;;9.30;99.90;;;;;;5055537;28;20413;-84
2024/03/02 00:02:48;;;;;;;1.95;1.20;;;9.30;99.90;;;;;;5039071;28;20116;-83
2024/03/02 00:05:15;;;;;;;2.08;1.30;;;9.30;99.90;;;;;;5038781;28;20422;-84
2024/03/02 00:07:43;;;;;;;1.80;1.13;;;9.30;99.90;;;;;;5056567;28;20556;-82
2024/03/02 00:10:11;;;;;;;1.98;1.20;;;9.30;99.90;;;;;;5055807;28;20538;-84
2024/03/02 00:12:41;;;;;;;2.67;1.20;;;9.30;99.90;;;;;;5038967;28;20067;-83
2024/03/02 00:15:17;;;;;;;2.88;1.38;;;9.30;99.90;;;;;;5055723;28;20021;-84
2024/03/02 00:17:43;;;;;;;2.08;1.08;;;9.30;99.90;;;;;;5056437;28;20053;-82
2024/03/02 00:20:10;;;;;;;1.85;0.93;;;9.30;99.90;;;;;;5022241;28;20098;-83
2024/03/02 00:22:37;;;;;;;1.77;1.08;;;9.30;99.90;;;;;;5038418;28;20036;-83
2024/03/02 00:25:03;;;;;;;1.77;1.17;;;9.30;99.90;;;;;;5038668;28;20029;-84
2024/03/02 00:27:29;;;;;;;2.47;1.13;;;9.30;99.90;;;;;;5038281;28;20029;-83
2024/03/02 00:29:56;;;;;;;2.17;1.23;;;9.30;99.90;;;;;;5038498;28;20025;-83
2024/03/02 00:32:22;;;;;;;2.45;1.23;;;9.30;99.90;;;;;;5038281;28;20120;-84
2024/03/02 00:34:48;;;;;;;4.13;1.20;;;9.30;99.90;;;;;;5038156;28;20417;-85
2024/03/02 00:37:14;;;;;;;1.40;0.93;;;9.30;99.90;;;;;;5021974;28;20048;-84
2024/03/02 00:39:40;;;;;;;1.90;1.00;;;9.40;99.90;;;;;;5037603;28;20458;-85
2024/03/02 00:42:06;;;;;;;2.45;1.15;;;9.40;99.90;;;;;;5005563;28;20060;-84
2024/03/02 00:44:35;;;;;;;2.45;1.17;;;9.30;99.90;;;;;;5022044;28;20155;-85
2024/03/02 00:47:01;;;;;;;1.52;0.80;;;9.40;99.90;;;;;;5038275;28;20028;-85
2024/03/02 00:49:28;;;;;;;1.92;1.10;;;9.40;99.90;;;;;;5037824;28;20511;-84
2024/03/02 00:51:54;;;;;;;2.08;1.02;;;9.40;99.90;;;;;;5020883;28;20029;-84
2024/03/02 00:54:24;;;;;;;2.28;1.25;;;9.40;99.90;;;;;;5056032;28;20025;-85
2024/03/02 00:56:50;;;;;;;1.55;1.05;;;9.40;99.90;;;;;;5040545;28;20047;-85
2024/03/02 00:59:16;;;;;;;1.88;1.10;;;9.40;99.90;;;;;;5034263;28;20029;-85
2024/03/02 01:01:42;;;;;;;3.88;1.13;;;9.40;99.90;;;;;;5068659;28;20032;-84
2024/03/02 01:04:08;;;;;;;1.60;1.08;;;9.50;99.90;;;;;;5035858;28;20036;-85
2024/03/02 01:06:35;;;;;;;1.63;0.93;;;9.50;99.90;;;;;;5049793;28;20032;-84
2024/03/02 01:09:01;;;;;;;2.25;1.20;;;9.50;99.90;;;;;;5072445;28;20029;-84
2024/03/02 01:11:27;;;;;;;2.28;1.25;;;9.50;99.90;;;;;;5044100;28;20032;-84
2024/03/02 01:13:53;;;;;;;2.17;1.30;;;9.60;99.90;;;;;;5041742;28;20101;-83
2024/03/02 01:16:19;;;;;;;1.98;0.98;;;9.60;99.90;;;;;;5040970;28;20033;-84
2024/03/02 01:18:44;;;;;;;2.45;1.20;;;9.60;99.90;;;;;;5038282;28;20045;-83
2024/03/02 01:21:10;;;;;;;1.75;1.15;;;9.60;99.90;;;;;;5042323;28;20469;-84
2024/03/02 01:23:36;;;;;;;2.65;1.00;;;9.60;99.90;;;;;;5021125;28;20044;-84
2024/03/02 01:26:01;;;;;;;1.58;0.98;;;9.60;99.90;;;;;;5037564;28;20491;-85
2024/03/02 01:28:27;;;;;;;2.63;1.00;;;9.50;99.90;;;;;;5054203;28;20532;-84
2024/03/02 01:30:53;;;;;;;1.58;0.95;;;9.50;99.90;;;;;;5037426;28;20480;-83
2024/03/02 01:33:19;;;;;;;1.92;0.82;;;9.60;99.90;;;;;;5004533;28;20500;-84
2024/03/02 01:35:45;;;;;;;1.58;0.75;;;9.60;99.90;;;;;;5020807;28;20388;-84
2024/03/02 01:38:11;;;;;;;1.90;0.98;;;9.70;99.90;;;;;;5037224;28;20033;-83
2024/03/02 01:40:37;;;;;;;3.25;0.75;;;9.70;99.90;;;;;;5020757;28;20086;-84
2024/03/02 01:43:07;;;;;;;2.53;0.93;;;9.70;99.90;;;;;;5053943;28;20109;-85
2024/03/02 01:45:33;;;;;;;0.50;0.47;;;9.70;99.90;;;;;;5054084;28;20036;-84
2024/03/02 01:47:59;;;;;;;1.05;0.50;;;9.70;99.90;;;;;;5020827;28;20036;-84
2024/03/02 01:50:34;;;;;;;0.52;0.40;;;9.70;99.90;;;;;;5020633;28;20040;-84
2024/03/02 01:53:02;;;;;;;0.75;0.30;;;9.70;99.90;;;;;;5036168;28;20029;-84
2024/03/02 01:55:30;;;;;;;0.30;0.30;;;9.70;99.90;;;;;;5020526;28;20381;-84
2024/03/02 01:57:55;;;;;;;0.60;0.40;;;9.80;99.90;;;;;;5054550;28;20021;-84
2024/03/02 02:00:21;;;;;;;0.43;0.20;;;9.70;99.90;;;;;;5054897;28;20025;-84
2024/03/02 02:02:48;;;;;;;0.45;0.28;;;9.80;99.90;;;;;;5054601;28;20063;-84
2024/03/02 02:05:14;;;;;;;0.25;0.20;;;9.80;99.90;;;;;;5004252;28;20029;-84
2024/03/02 02:07:41;;;;;;;0.88;0.43;;;9.80;99.90;;;;;;5020317;28;20086;-83
2024/03/02 02:10:07;;;;;;;0.25;0.10;;;9.80;99.90;;;;;;5053565;28;20400;-84
2024/03/02 02:12:33;;;;;;;0.30;0.25;;;9.80;99.90;;;;;;5036551;28;20033;-84
2024/03/02 02:14:59;;;;;;;0.60;0.20;;;9.80;99.90;;;;;;5052790;28;20040;-83
2024/03/02 02:17:25;;;;;;;1.15;0.30;;;9.80;99.90;;;;;;5053694;28;20135;-84
2024/03/02 02:19:50;;;;;;;0.28;0.20;;;9.80;99.90;;;;;;5021992;28;20095;-85
2024/03/02 02:22:16;;;;;;;0.77;0.20;;;9.80;99.90;;;;;;5005683;28;20061;-84
2024/03/02 02:24:42;;;;;;;2.15;0.20;;;9.80;99.90;;;;;;5021847;28;20032;-84
2024/03/02 02:27:08;;;;;;;0.20;0.20;;;9.80;99.90;;;;;;5037242;28;20075;-84
2024/03/02 02:29:34;;;;;;;0.25;0.20;;;9.80;99.90;;;;;;5055955;28;20029;-85
2024/03/02 02:32:00;;;;;;;0.43;0.40;;;9.80;99.90;;;;;;5021664;28;20538;-85
2024/03/02 02:34:26;;;;;;;0.28;0.20;;;9.80;99.90;;;;;;5055246;28;20033;-84
2024/03/02 02:36:52;;;;;;;1.40;0.20;;;9.80;99.90;;;;;;5015965;28;20025;-85
2024/03/02 02:39:21;;;;;;;0.20;0.20;;;9.80;99.90;;;;;;5060766;28;20021;-84
2024/03/02 02:41:46;;;;;;;0.50;0.30;;;9.90;99.90;;;;;;5077596;28;20016;-84
2024/03/02 02:44:12;;;;;;;0.40;0.30;;;9.90;99.90;;;;;;5060368;28;20017;-83
2024/03/02 02:46:39;;;;;;;0.75;0.30;;;9.80;99.90;;;;;;5067266;28;20056;-84
2024/03/02 02:49:05;;;;;;;0.20;0.10;;;9.90;99.90;;;;;;5036726;28;20033;-83
2024/03/02 02:51:34;;;;;;;0.20;0.20;;;9.90;99.90;;;;;;5020647;28;20076;-84
2024/03/02 02:53:59;;;;;;;1.00;0.22;;;9.90;99.90;;;;;;5054265;28;20480;-84
2024/03/02 02:56:25;;;;;;;0.47;0.20;;;9.90;99.90;;;;;;5003036;28;20029;-83
2024/03/02 02:58:51;;;;;;;0.40;0.20;;;9.90;99.90;;;;;;5035962;28;20040;-85
2024/03/02 03:01:19;;;;;;;0.52;0.20;;;9.80;99.90;;;;;;5003031;28;20065;-83
2024/03/02 03:03:46;;;;;;;0.35;0.20;;;9.80;99.90;;;;;;5019477;28;20029;-84
2024/03/02 03:06:11;;;;;;;0.40;0.15;;;9.80;99.90;;;;;;5019437;28;20040;-84
2024/03/02 03:08:37;;;;;;;0.80;0.30;;;9.80;99.90;;;;;;5052281;28;20443;-84
2024/03/02 03:11:04;;;;;;;0.85;0.13;;;9.80;99.90;;;;;;5052678;28;20455;-85
2024/03/02 03:13:34;;;;;;;0.55;0.20;;;9.80;99.90;;;;;;5035734;28;20112;-84
2024/03/02 03:15:59;;;;;;;0.20;0.20;;;9.70;99.90;;;;;;5019896;28;20029;-85
2024/03/02 03:18:25;;;;;;;1.23;0.20;;;9.70;99.90;;;;;;5035461;28;20551;-83
2024/03/02 03:20:51;;;;;;;0.50;0.20;;;9.70;99.90;;;;;;5052017;28;20479;-84
2024/03/02 03:23:17;;;;;;;0.47;0.13;;;9.70;99.90;;;;;;5019019;28;20499;-84
2024/03/02 03:25:45;;;;;;;0.28;0.20;;;9.60;99.90;;;;;;5019268;28;20033;-83
2024/03/02 03:28:11;;;;;;;1.17;0.50;;;9.70;99.90;;;;;;5035773;28;20485;-84
2024/03/02 03:30:37;;;;;;;0.52;0.30;;;9.70;99.90;;;;;;5035344;28;20032;-84
2024/03/02 03:33:04;;;;;;;0.60;0.20;;;9.60;99.90;;;;;;5052014;28;20021;-84
2024/03/02 03:35:29;;;;;;;0.57;0.30;;;9.60;99.90;;;;;;5035596;28;20506;-85
2024/03/02 03:37:55;;;;;;;0.20;0.20;;;9.60;99.90;;;;;;5003321;28;20025;-82
2024/03/02 03:40:21;;;;;;;0.47;0.20;;;9.60;99.90;;;;;;5019093;28;20028;-85
2024/03/02 03:42:46;;;;;;;0.30;0.20;;;9.50;99.90;;;;;;5019061;28;20067;-84
2024/03/02 03:45:12;;;;;;;0.40;0.30;;;9.50;99.90;;;;;;5035656;28;20499;-84
2024/03/02 03:47:38;;;;;;;1.00;0.10;;;9.50;99.90;;;;;;5018738;28;20029;-84
2024/03/02 03:50:06;;;;;;;0.10;0.10;;;9.50;99.90;;;;;;5019499;28;20488;-83
2024/03/02 03:52:33;;;;;;;1.27;0.22;;;9.50;99.90;;;;;;5003313;28;20118;-83
2024/03/02 03:54:59;;;;;;;0.52;0.10;;;9.40;99.90;;;;;;5052161;28;20032;-85
2024/03/02 03:57:26;;;;;;;0.98;0.30;;;9.40;99.90;;;;;;5053242;28;20132;-84
2024/03/02 03:59:51;;;;;;;0.40;0.20;;;9.40;99.90;;;;;;5002837;28;20174;-84
2024/03/02 04:02:17;;;;;;;0.50;0.20;;;9.40;99.90;;;;;;5035901;28;20073;-84
2024/03/02 04:04:43;;;;;;;0.40;0.20;;;9.40;99.90;;;;;;5036644;28;20033;-84
2024/03/02 04:07:09;;;;;;;1.25;0.25;;;9.40;99.90;;;;;;5023833;28;20151;-83
2024/03/02 04:09:35;;;;;;;0.22;0.17;;;9.40;99.90;;;;;;5035272;28;20021;-84
2024/03/02 04:12:00;;;;;;;0.45;0.35;;;9.30;99.90;;;;;;5027019;28;20044;-84
2024/03/02 04:14:26;;;;;;;0.10;0.10;;;9.30;99.90;;;;;;5060427;28;20021;-84
2024/03/02 04:16:51;;;;;;;0.45;0.30;;;9.30;99.90;;;;;;5045690;28;20027;-84
2024/03/02 04:19:17;;;;;;;0.45;0.30;;;9.30;99.90;;;;;;5033435;28;20068;-84
2024/03/02 04:21:43;;;;;;;0.75;0.30;;;9.30;99.90;;;;;;5022622;28;20029;-84
2024/03/02 04:24:08;;;;;;;0.28;0.28;;;9.30;99.90;;;;;;5045905;28;20028;-84
2024/03/02 04:26:34;;;;;;;1.13;0.30;;;9.30;99.90;;;;;;5038773;28;20473;-84
2024/03/02 04:29:00;;;;;;;0.95;0.30;;;9.30;99.90;;;;;;5038768;28;20481;-83
2024/03/02 04:31:25;;;;;;;0.52;0.32;;;9.30;99.90;;;;;;5022647;28;20182;-82
2024/03/02 04:33:51;;;;;;;0.93;0.20;;;9.30;99.90;;;;;;5005927;28;20029;-83
2024/03/02 04:36:16;;;;;;;0.20;0.20;;;9.30;99.90;;;;;;5038697;28;20554;-83
2024/03/02 04:38:42;;;;;;;1.20;0.50;;;9.30;99.90;;;;;;5038224;28;20017;-83
2024/03/02 04:41:08;;;;;;;0.82;0.45;;;9.30;99.90;;;;;;5021799;28;20021;-84
2024/03/02 04:43:34;;;;;;;0.90;0.43;;;9.30;99.90;;;;;;5038228;28;20057;-83
2024/03/02 04:46:00;;;;;;;1.75;0.32;;;9.30;99.90;;;;;;5054562;28;20450;-83
2024/03/02 04:48:26;;;;;;;1.00;0.60;;;9.30;99.90;;;;;;5038018;28;20029;-83
2024/03/02 04:50:54;;;;;;;1.33;0.30;;;9.30;99.90;;;;;;5038087;28;20104;-84
2024/03/02 04:53:19;;;;;;;0.93;0.30;;;9.30;99.90;;;;;;5021290;28;20033;-83
2024/03/02 04:58:20;;;;;;;0.20;0.20;;;9.20;99.90;;;;;;5039375;28;20037;-84
2024/03/02 05:00:46;;;;;;;0.20;0.20;;;9.20;99.90;;;;;;5038484;28;20033;-82
2024/03/02 05:03:12;;;;;;;0.82;0.13;;;9.20;99.90;;;;;;5038002;28;20032;-83
2024/03/02 05:05:38;;;;;;;0.90;0.40;;;9.10;99.90;;;;;;5021448;28;20067;-84
2024/03/02 05:08:04;;;;;;;0.32;0.30;;;9.10;99.90;;;;;;5037835;28;20037;-83
2024/03/02 05:10:30;;;;;;;1.17;0.40;;;9.00;99.90;;;;;;5005086;28;20037;-84
2024/03/02 05:12:56;;;;;;;1.33;0.30;;;9.00;99.90;;;;;;5021046;28;20075;-84
2024/03/02 05:15:26;;;;;;;0.20;0.20;;;9.00;99.90;;;;;;5005181;28;20029;-84
2024/03/02 05:17:51;;;;;;;0.30;0.30;;;9.00;99.90;;;;;;5037511;28;20068;-84
2024/03/02 05:20:18;;;;;;;0.30;0.30;;;9.00;99.90;;;;;;5037674;28;20037;-84
2024/03/02 05:22:43;;;;;;;0.38;0.25;;;8.90;99.90;;;;;;5021168;28;20033;-84
2024/03/02 05:25:11;;;;;;;0.68;0.28;;;8.90;99.90;;;;;;5037403;28;20121;-83
2024/03/02 05:27:37;;;;;;;0.88;0.35;;;8.90;99.90;;;;;;5021172;28;20040;-83
2024/03/02 05:30:06;;;;;;;1.13;0.50;;;8.90;99.90;;;;;;5021116;28;20025;-83
2024/03/02 05:32:33;;;;;;;1.77;0.50;;;8.90;99.90;;;;;;5005381;28;20052;-84
2024/03/02 05:34:58;;;;;;;1.83;0.50;;;8.80;99.90;;;;;;5005320;28;20041;-84
2024/03/02 05:37:24;;;;;;;0.60;0.28;;;8.80;99.90;;;;;;5054541;28;20032;-83
2024/03/02 05:39:53;;;;;;;0.68;0.35;;;8.80;99.90;;;;;;5023563;28;20033;-82
2024/03/02 05:42:19;;;;;;;0.30;0.30;;;8.80;99.90;;;;;;5078070;28;20016;-83
2024/03/02 05:44:44;;;;;;;0.30;0.28;;;8.80;99.90;;;;;;5028858;28;20016;-84
2024/03/02 05:47:10;;;;;;;1.38;0.40;;;8.70;99.90;;;;;;5027844;28;20105;-83
2024/03/02 05:49:36;;;;;;;0.75;0.35;;;8.70;99.90;;;;;;5048355;28;20025;-83
2024/03/02 05:52:01;;;;;;;1.60;0.30;;;8.70;99.90;;;;;;5020741;28;20111;-83
2024/03/02 05:54:27;;;;;;;1.20;0.30;;;8.70;99.90;;;;;;5020891;28;20025;-83
2024/03/02 05:56:53;;;;;;;1.27;0.30;;;8.60;99.90;;;;;;5020414;28;20041;-84
2024/03/02 05:59:19;;;;;;;1.00;0.30;;;8.60;99.90;;;;;;5036859;28;20033;-83
2024/03/02 06:01:52;;;;;;;1.58;0.55;;;8.60;99.90;;;;;;5036705;28;20025;-83
2024/03/02 06:04:18;;;;;;;1.30;0.40;;;8.60;99.90;;;;;;5053133;28;20028;-84
2024/03/02 06:06:43;;;;;;;1.05;0.30;;;8.60;99.90;;;;;;5036826;28;20039;-83
2024/03/02 06:09:12;;;;;;;0.85;0.40;;;8.50;99.90;;;;;;5036855;28;20074;-83
2024/03/02 06:11:38;;;;;;;0.60;0.30;;;8.50;99.90;;;;;;5036383;28;20037;-84
2024/03/02 06:14:06;;;;;;;0.90;0.30;;;8.50;99.90;;;;;;5036404;28;20033;-84
2024/03/02 06:16:34;;;;;;;0.90;0.30;;;8.50;99.90;;;;;;5019865;28;20029;-83
2024/03/02 06:19:00;;;;;;;0.50;0.30;;;8.50;99.90;;;;;;5036181;28;20065;-85
2024/03/02 06:21:29;;;;;;;0.77;0.40;;;8.40;99.90;;;;;;5036194;28;20064;-84
2024/03/02 06:23:54;;;;;;;0.30;0.15;;;8.40;99.90;;;;;;5053263;28;20029;-83
2024/03/02 06:26:20;;;;;;;1.00;0.40;;;8.40;99.90;;;;;;5020181;28;20104;-83
2024/03/02 06:28:46;;;;;;;0.90;0.40;;;8.40;99.90;;;;;;5036168;28;20037;-83
2024/03/02 06:31:12;;;;;;;1.23;0.32;;;8.30;99.90;;;;;;5036099;28;20080;-84
2024/03/02 06:33:38;;;;;;;0.45;0.35;;;8.30;99.90;;;;;;5053844;28;20033;-83
2024/03/02 06:36:04;;;;;;;0.47;0.30;;;8.30;99.90;;;;;;5035859;28;20366;-84
2024/03/02 06:38:33;;;;;;;2.22;0.40;;;8.30;99.90;;;;;;5052272;28;20025;-83
2024/03/02 06:40:58;;;;;;;1.38;0.30;;;8.30;99.90;;;;;;5036273;28;20088;-85
2024/03/02 06:43:24;;;;;;;0.50;0.30;;;8.30;99.90;;;;;;5002931;28;20610;-83
2024/03/02 06:45:51;;;;;;;1.67;0.40;;;8.30;99.90;;;;;;5036304;28;20468;-83
2024/03/02 06:48:19;;;;;;;1.33;0.32;;;8.30;99.90;;;;;;5036260;28;20041;-83
2024/03/02 06:50:46;;;;;;;1.92;0.52;;;8.30;99.90;;;;;;5036151;28;20067;-84
2024/03/02 06:53:12;;;;;;;1.15;0.30;;;8.40;99.90;;;;;;5035637;28;20029;-83
2024/03/02 06:55:38;;;;;;;0.45;0.20;;;8.40;99.90;;;;;;5035691;28;20435;-83
2024/03/02 06:58:04;;;;;;;1.05;0.30;;;8.40;99.90;;;;;;5052603;28;20473;-83
2024/03/02 07:00:30;;;;;;;0.52;0.20;;;8.40;99.90;;;;;;5036233;28;20033;-83
2024/03/02 07:02:56;;;;;;;0.52;0.40;;;8.50;99.90;;;;;;5036216;28;20082;-82
2024/03/02 07:05:21;;;;;;;0.47;0.20;;;8.50;99.90;;;;;;5052842;28;20069;-83
2024/03/02 07:07:47;;;;;;;1.35;0.60;;;8.50;99.90;;;;;;5003605;28;20487;-84
2024/03/02 07:10:13;;;;;;;0.55;0.28;;;8.50;99.90;;;;;;5019703;28;20028;-85
2024/03/02 07:12:38;;;;;;;1.63;0.40;;;8.50;99.90;;;;;;5027987;28;20077;-84
2024/03/02 07:17:31;;;;;;;1.25;0.30;;;8.50;99.90;;;;;;5037594;28;20139;-84
2024/03/02 07:19:57;;;;;;;0.68;0.38;;;8.50;99.90;;;;;;5054169;28;20057;-84
2024/03/02 07:22:23;;;;;;;1.02;0.50;;;8.50;99.90;;;;;;5019403;28;20025;-82
2024/03/02 07:24:49;;;;;;;1.08;0.50;;;8.50;99.90;;;;;;5019386;28;20021;-83
2024/03/02 07:27:16;;;;;;;0.75;0.50;;;8.50;99.90;;;;;;5035533;28;20029;-84
2024/03/02 07:29:42;;;;;;;0.95;0.60;;;8.50;99.90;;;;;;5052203;28;20028;-83
2024/03/02 07:32:09;;;;;;;1.98;0.65;;;8.50;99.90;;;;;;5035390;28;20033;-82
2024/03/02 07:34:35;;;;;;;2.05;0.70;;;8.50;99.90;;;;;;5051419;28;20021;-84
2024/03/02 07:37:01;;;;;;;0.82;0.43;;;8.50;99.90;;;;;;5051344;28;20029;-82
2024/03/02 07:39:30;;;;;;;1.15;0.45;;;8.60;99.90;;;;;;5035085;28;20468;-82
2024/03/02 07:41:56;;;;;;;1.30;0.40;;;8.60;99.90;;;;;;5018288;28;20028;-82
2024/03/02 07:44:22;;;;;;;1.35;0.50;;;8.60;99.90;;;;;;5034968;28;20037;-82
2024/03/02 07:46:51;;;;;;;1.00;0.40;;;8.60;99.90;;;;;;5051428;28;20033;-84
2024/03/02 07:49:18;;;;;;;1.05;0.50;;;8.70;99.90;;;;;;5020146;28;20036;-83
2024/03/02 07:51:43;;;;;;;2.42;0.80;;;8.70;99.90;;;;;;5055395;28;20029;-82
2024/03/02 07:54:09;;;;;;;2.38;0.73;;;8.80;99.90;;;;;;5022170;28;20039;-83
2024/03/02 07:56:35;;;;;;;1.20;0.40;;;8.80;99.90;;;;;;5005798;28;20083;-83
2024/03/02 07:59:04;;;;;;;0.90;0.47;;;8.80;99.90;;;;;;5055309;28;20546;-83
2024/03/02 08:01:31;;;;;;;1.35;0.40;;;8.90;99.90;;;;;;5055208;28;20048;-83
2024/03/02 08:04:05;;;;;;;1.05;0.40;;;8.90;99.90;;;;;;5055359;28;20112;-85
2024/03/02 08:06:31;;;;;;;1.70;0.45;;;9.00;99.90;;;;;;5022693;28;20150;-82
2024/03/02 08:09:01;;;;;;;1.55;0.50;;;9.10;99.90;;;;;;5056812;28;20029;-83
2024/03/02 08:11:27;;;;;;;1.40;0.50;;;9.10;99.90;;;;;;5022736;28;20033;-82
2024/03/02 08:13:54;;;;;;;0.73;0.30;;;9.20;99.90;;;;;;5055517;28;20111;-82
2024/03/02 08:16:21;;;;;;;1.13;0.65;;;9.20;99.90;;;;;;5055416;28;20029;-82
2024/03/02 08:18:49;;;;;;;1.55;0.57;;;9.30;99.90;;;;;;5055002;28;20041;-84
2024/03/02 08:21:15;;;;;;;1.45;0.50;;;9.30;99.90;;;;;;5055072;28;20021;-82
2024/03/02 08:23:43;;;;;;;1.88;0.40;;;9.40;99.90;;;;;;5055784;28;20456;-83
2024/03/02 08:26:12;;;;;;;1.98;0.50;;;9.50;99.90;;;;;;5056961;28;20033;-82
2024/03/02 08:28:40;;;;;;;3.60;0.63;;;9.50;99.90;;;;;;5038780;28;20476;-82
2024/03/02 08:31:06;;;;;;;1.50;0.38;;;9.60;99.90;;;;;;5008903;28;20041;-81
2024/03/02 08:33:32;;;;;;;3.55;0.40;;;9.70;99.90;;;;;;5037850;28;20064;-81
2024/03/02 08:35:58;;;;;;;1.17;0.40;;;9.80;99.90;;;;;;5061416;28;20021;-81
2024/03/02 08:38:24;;;;;;;1.60;0.50;;;9.80;99.90;;;;;;5042320;28;20009;-82
2024/03/02 08:40:50;;;;;;;0.90;0.30;;;9.80;99.90;;;;;;5042657;28;20025;-82
2024/03/02 08:43:16;;;;;;;3.38;0.77;;;9.90;99.90;;;;;;5043777;28;20036;-83
2024/03/02 08:45:42;;;;;;;1.40;0.60;;;9.90;99.90;;;;;;5036715;28;20033;-81
2024/03/02 08:48:08;;;;;;;1.15;0.40;;;10.00;99.90;;;;;;5054781;28;20120;-80
2024/03/02 08:50:37;;;;;;;3.13;0.40;;;10.00;99.90;;;;;;5054684;28;20040;-83
2024/03/02 08:53:23;;;;;;;3.53;0.65;;;10.10;99.90;;;;;;5055853;28;20396;-81
2024/03/02 08:55:49;;;;;;;1.65;0.60;;;10.00;99.90;;;;;;5037888;28;20392;-81
2024/03/02 08:58:14;;;;;;;1.67;0.50;;;10.10;99.90;;;;;;5037772;28;20105;-82
2024/03/02 09:00:41;;;;;;;1.45;0.60;;;10.10;99.90;;;;;;5020669;28;20033;-83
2024/03/02 09:03:07;;;;;;;2.25;0.57;;;10.20;99.90;;;;;;5055550;28;20431;-81
2024/03/02 09:05:32;;;;;;;2.85;0.68;;;10.20;99.90;;;;;;5021197;28;20539;-82
2024/03/02 09:07:58;;;;;;;2.47;0.50;;;10.20;99.90;;;;;;5037734;28;20036;-83
2024/03/02 09:10:24;;;;;;;3.10;0.55;;;10.20;99.90;;;;;;5020953;28;20081;-83
2024/03/02 09:12:50;;;;;;;2.17;0.80;;;10.30;99.90;;;;;;5055333;28;20029;-83
2024/03/02 09:15:18;;;;;;;1.65;0.90;;;10.30;99.90;;;;;;5037505;28;20029;-81
2024/03/02 09:17:44;;;;;;;2.25;0.77;;;10.30;99.90;;;;;;5020509;28;20049;-82
2024/03/02 09:20:10;;;;;;;1.25;0.60;;;10.40;99.90;;;;;;5037903;28;20112;-82
2024/03/02 09:22:36;;;;;;;1.98;0.80;;;10.40;99.90;;;;;;5005022;28;20408;-83
2024/03/02 09:25:02;;;;;;;6.45;0.80;;;10.40;99.90;;;;;;5020869;28;20086;-82
2024/03/02 09:27:28;;;;;;;1.20;0.80;;;10.50;99.90;;;;;;5054974;28;20064;-82
2024/03/02 09:29:53;;;;;;;2.22;0.50;;;10.50;99.90;;;;;;5037457;28;20124;-82
2024/03/02 09:32:19;;;;;;;3.00;0.70;;;10.50;99.90;;;;;;5020574;28;20032;-82
2024/03/02 09:34:45;;;;;;;2.28;0.73;;;10.50;99.90;;;;;;5037352;28;20029;-81
2024/03/02 09:37:10;;;;;;;2.10;0.80;;;10.60;99.90;;;;;;5020387;28;20071;-82
2024/03/02 09:39:36;;;;;;;2.53;0.80;;;10.60;99.90;;;;;;5020537;28;20031;-82
2024/03/02 09:42:04;;;;;;;4.78;0.93;;;10.70;99.90;;;;;;5037171;28;20036;-83
2024/03/02 09:44:30;;;;;;;3.72;0.82;;;10.60;99.90;;;;;;5053362;28;20060;-83
2024/03/02 09:46:56;;;;;;;2.15;0.73;;;10.60;99.90;;;;;;5020078;28;20033;-82
2024/03/02 09:49:22;;;;;;;1.70;0.57;;;10.70;99.90;;;;;;5020413;28;20091;-83
2024/03/02 09:51:48;;;;;;;2.45;0.90;;;10.70;99.90;;;;;;5020245;28;20029;-82
2024/03/02 09:54:16;;;;;;;2.00;0.85;;;10.70;99.90;;;;;;5036770;28;20048;-82
2024/03/02 09:56:42;;;;;;;2.00;0.73;;;10.80;99.90;;;;;;5054632;28;20025;-82
2024/03/02 09:59:07;;;;;;;1.73;0.60;;;10.80;99.90;;;;;;5003945;28;20506;-81
2024/03/02 10:01:33;;;;;;;2.92;0.75;;;10.80;99.90;;;;;;5054629;28;20055;-82
2024/03/02 10:04:00;;;;;;;2.03;0.70;;;10.80;99.90;;;;;;5037416;28;20040;-82
2024/03/02 10:06:27;;;;;;;2.05;1.00;;;10.80;99.90;;;;;;5053660;28;20532;-82
2024/03/02 10:08:59;;;;;;;1.23;0.55;;;10.90;99.90;;;;;;5040443;28;20058;-81
2024/03/02 10:11:34;;;;;;;3.90;0.90;;;11.00;99.90;;;;;;5072883;28;20104;-82
2024/03/02 10:14:10;;;;;;;2.53;0.55;;;11.00;99.90;;;;;;5077683;28;20029;-82
2024/03/02 10:16:43;;;;;;;1.80;0.60;;;11.00;99.90;;;;;;5054813;28;20127;-82
2024/03/02 10:19:26;;;;;;;2.25;0.45;;;11.10;99.90;;;;;;5053751;28;20053;-81
2024/03/02 10:21:53;;;;;;;3.55;0.60;;;11.10;99.90;;;;;;5054613;28;20036;-80
2024/03/02 10:24:20;;;;;;;3.10;0.60;;;11.20;99.90;;;;;;5036282;28;20033;-81
2024/03/02 10:26:47;;;;;;;2.47;0.73;;;11.20;99.90;;;;;;5052580;28;20033;-82
2024/03/02 10:29:13;;;;;;;2.22;0.70;;;11.30;99.90;;;;;;5052762;28;20415;-81
2024/03/02 10:31:43;;;;;;;2.53;0.68;;;11.20;99.90;;;;;;5036206;28;20025;-80
2024/03/02 10:34:10;;;;;;;1.23;0.55;;;11.30;99.90;;;;;;5052761;28;20035;-82
2024/03/02 10:36:40;;;;;;;2.45;0.60;;;11.30;99.90;;;;;;5052363;28;20036;-82
2024/03/02 10:39:07;;;;;;;2.20;0.90;;;11.30;99.90;;;;;;5020144;28;20040;-82
2024/03/02 10:41:37;;;;;;;2.08;0.60;;;11.30;99.90;;;;;;5052375;28;20615;-82
2024/03/02 10:44:05;;;;;;;1.73;0.50;;;11.40;99.90;;;;;;5053931;28;20025;-82
2024/03/02 10:46:33;;;;;;;1.80;0.63;;;11.40;99.90;;;;;;5035544;28;20024;-82
2024/03/02 10:49:02;;;;;;;1.35;0.65;;;11.50;99.90;;;;;;5035847;28;20021;-82
2024/03/02 10:51:31;;;;;;;3.75;0.90;;;11.50;99.80;;;;;;5052354;28;20017;-83
2024/03/02 10:53:58;;;;;;;2.15;1.17;;;11.60;99.70;;;;;;5035995;28;20029;-81
2024/03/02 10:56:32;;;;;;;3.60;0.85;;;11.50;99.70;;;;;;5053603;28;20774;-80
2024/03/02 10:59:17;;;;;;;3.10;0.73;;;11.60;99.50;;;;;;5019471;28;20393;-81
2024/03/02 11:01:43;;;;;;;2.40;0.57;;;11.60;99.50;;;;;;5053698;28;20017;-83
2024/03/02 11:04:12;;;;;;;1.30;0.47;;;11.70;99.80;;;;;;5035800;28;20060;-81
2024/03/02 11:06:41;;;;;;;2.30;0.63;;;11.70;99.50;;;;;;5053707;28;20031;-80
2024/03/02 11:09:11;;;;;;;4.32;0.77;;;11.80;99.40;;;;;;5035746;28;20017;-81
2024/03/02 11:11:42;;;;;;;3.15;0.80;;;11.90;99.40;;;;;;5052467;28;20115;-81
2024/03/02 11:14:13;;;;;;;2.40;0.60;;;11.90;99.40;;;;;;5052847;28;20411;-81
2024/03/02 11:16:41;;;;;;;1.00;0.30;;;12.00;99.20;;;;;;5052172;28;20017;-81
2024/03/02 11:19:10;;;;;;;1.67;0.55;;;12.00;99.10;;;;;;5035908;28;20049;-81
2024/03/02 11:21:37;;;;;;;1.52;0.57;;;12.00;99.10;;;;;;5035810;28;20020;-82
2024/03/02 11:24:32;;;;;;;1.30;0.60;;;12.10;99.10;;;;;;5020203;28;20055;-82
2024/03/02 11:27:01;;;;;;;1.88;0.50;;;12.20;99.00;;;;;;5053306;28;20036;-82
2024/03/02 11:29:36;;;;;;;2.05;0.70;;;12.20;98.90;;;;;;5007623;28;20118;-81
2024/03/02 11:32:03;;;;;;;3.67;0.80;;;12.20;98.80;;;;;;5039770;28;20064;-81
2024/03/02 11:34:39;;;;;;;1.00;0.50;;;12.20;98.70;;;;;;5057893;28;20029;-81
2024/03/02 11:37:05;;;;;;;1.23;0.60;;;12.20;98.70;;;;;;5040661;28;20029;-81
2024/03/02 11:39:32;;;;;;;1.23;0.60;;;12.30;98.70;;;;;;5010253;28;20025;-82
2024/03/02 11:41:58;;;;;;;1.70;0.63;;;12.30;98.60;;;;;;5076526;28;20032;-81
2024/03/02 11:44:27;;;;;;;1.10;0.40;;;12.30;98.60;;;;;;5048340;28;20088;-81
2024/03/02 11:47:06;;;;;;;1.23;0.40;;;12.40;98.50;;;;;;5047737;28;20480;-82
2024/03/02 11:49:39;;;;;;;0.70;0.40;;;12.40;98.30;;;;;;5077412;28;20037;-82
2024/03/02 11:52:09;;;;;;;1.73;0.60;;;12.40;98.30;;;;;;5060793;28;20358;-81
2024/03/02 11:54:39;;;;;;;2.28;0.90;;;12.40;98.30;;;;;;5055878;28;20021;-85
2024/03/02 11:57:06;;;;;;;1.98;0.60;;;12.50;98.20;;;;;;5056662;28;20471;-81
2024/03/02 11:59:32;;;;;;;1.48;0.50;;;12.50;98.10;;;;;;5022214;28;20029;-82
2024/03/02 12:02:01;;;;;;;1.98;0.70;;;12.50;98.00;;;;;;5056875;28;20032;-81
2024/03/02 12:04:27;;;;;;;2.00;0.70;;;12.50;98.00;;;;;;5055201;28;20503;-81
2024/03/02 12:07:01;;;;;;;2.30;0.57;;;12.50;97.80;;;;;;5005293;28;20087;-81
2024/03/02 12:09:28;;;;;;;1.98;0.70;;;12.60;97.70;;;;;;5055151;28;20025;-82
2024/03/02 12:12:07;;;;;;;1.67;0.55;;;12.60;97.50;;;;;;5038579;28;20059;-82
2024/03/02 12:14:35;;;;;;;2.67;0.57;;;12.60;97.10;;;;;;5056282;28;20349;-82
2024/03/02 12:17:01;;;;;;;3.58;0.80;;;12.60;97.10;;;;;;5038382;28;20024;-83
2024/03/02 12:19:32;;;;;;;1.58;0.60;;;12.60;97.00;;;;;;5021758;28;20053;-80
2024/03/02 12:21:58;;;;;;;2.17;0.60;;;12.70;97.00;;;;;;5055059;28;20185;-82
2024/03/02 12:24:26;;;;;;;1.48;0.50;;;12.70;96.90;;;;;;5056459;28;20028;-82
2024/03/02 12:26:53;;;;;;;2.13;0.70;;;12.70;97.00;;;;;;5055922;28;20103;-81
2024/03/02 12:29:20;;;;;;;1.83;0.45;;;12.80;96.90;;;;;;5021578;28;20124;-83
2024/03/02 12:31:54;;;;;;;1.45;0.60;;;12.80;96.80;;;;;;5021894;28;20025;-80
2024/03/02 12:34:21;;;;;;;3.50;0.90;;;12.80;96.70;;;;;;5056357;28;20116;-82
2024/03/02 12:36:49;;;;;;;1.63;0.70;;;12.90;96.70;;;;;;5037010;28;20025;-81
2024/03/02 12:39:16;;;;;;;1.90;0.52;;;12.90;96.70;;;;;;5021993;28;20033;-82
2024/03/02 12:41:42;;;;;;;2.10;0.85;;;12.90;96.70;;;;;;5056034;28;20040;-83
2024/03/02 12:44:08;;;;;;;1.08;0.60;;;12.90;96.80;;;;;;5021727;28;20025;-82
2024/03/02 12:46:35;;;;;;;4.88;0.93;;;12.90;96.60;;;;;;5005496;28;20035;-81
2024/03/02 12:49:12;;;;;;;1.85;0.68;;;13.00;96.50;;;;;;5038569;28;20298;-82
2024/03/02 12:51:41;;;;;;;2.47;0.70;;;12.90;96.40;;;;;;5037658;28;20033;-81
2024/03/02 12:54:10;;;;;;;2.17;0.73;;;12.90;96.30;;;;;;5021595;28;20025;-81
2024/03/02 12:56:37;;;;;;;1.95;0.50;;;13.00;96.40;;;;;;5054695;28;20114;-82